Time;durP1;ratioP1;P1;durP2;ratioP2;P2;SDS_P1;SDS_P2;PMS_P1;PMS_P2;Temp;Humidity;BMP_temperature;BMP_pressure;BME280_temperature;BME280_humidity;BME280_pressure;Samples;Min_cycle;Max_cycle;Signal;HPM_P1;HPM_P2
2023/10/24 00:00:16;;;;;;;73.65;51.22;;;;;;;20.60;nan;98808.91;5017129;28;20131;-64
2023/10/24 00:02:45;;;;;;;75.78;51.38;;;;;;;20.74;nan;98803.91;5010574;28;20081;-64
2023/10/24 00:05:15;;;;;;;74.93;51.42;;;;;;;20.58;nan;98794.88;5008220;28;20058;-65
2023/10/24 00:07:46;;;;;;;72.35;51.92;;;;;;;20.72;nan;98797.16;5007176;28;20343;-65
2023/10/24 00:10:16;;;;;;;76.03;52.47;;;;;;;20.55;nan;98800.78;5013566;28;20069;-65
2023/10/24 00:12:45;;;;;;;79.55;52.53;;;;;;;20.52;nan;98789.72;5021522;28;20049;-65
2023/10/24 00:15:15;;;;;;;79.30;51.72;;;;;;;20.58;nan;98794.06;5026745;28;20049;-64
2023/10/24 00:17:44;;;;;;;71.80;50.47;;;;;;;20.69;nan;98797.66;5017051;28;20050;-64
2023/10/24 00:20:13;;;;;;;72.15;51.58;;;;;;;20.70;nan;98794.75;5019840;28;20066;-64
2023/10/24 00:22:43;;;;;;;84.10;55.47;;;;;;;20.59;nan;98801.91;5027879;28;20069;-64
2023/10/24 00:25:14;;;;;;;70.25;54.55;;;;;;;20.48;nan;98805.56;5026195;28;20627;-64
2023/10/24 00:27:44;;;;;;;73.75;51.58;;;;;;;20.54;nan;98803.72;5027886;28;20124;-64
2023/10/24 00:30:14;;;;;;;83.22;55.08;;;;;;;20.61;nan;98805.16;5014556;28;20080;-64
2023/10/24 00:32:44;;;;;;;79.45;55.53;;;;;;;20.62;nan;98812.13;5013646;28;20103;-65
2023/10/24 00:35:17;;;;;;;76.53;53.58;;;;;;;20.48;nan;98810.13;5023207;28;20049;-65
2023/10/24 00:37:46;;;;;;;75.70;54.17;;;;;;;20.48;nan;98818.19;5027727;28;20420;-64
2023/10/24 00:40:15;;;;;;;74.63;52.60;;;;;;;20.40;nan;98816.75;5014968;28;20053;-65
2023/10/24 00:42:45;;;;;;;78.30;54.80;;;;;;;20.39;nan;98814.34;5012094;28;20041;-65
2023/10/24 00:45:15;;;;;;;78.95;54.15;;;;;;;20.07;nan;98828.47;5001294;28;20168;-65
2023/10/24 00:47:45;;;;;;;83.65;53.22;;;;;;;20.05;nan;98825.19;5026267;28;20045;-64
2023/10/24 00:50:16;;;;;;;84.47;53.25;;;;;;;20.00;nan;98829.72;5023000;28;20060;-64
2023/10/24 00:52:46;;;;;;;73.78;52.67;;;;;;;20.05;nan;98827.06;5018489;28;20419;-64
2023/10/24 00:55:16;;;;;;;79.65;55.97;;;;;;;19.97;nan;98825.66;5001527;28;20132;-65
2023/10/24 00:57:46;;;;;;;75.28;56.03;;;;;;;19.76;nan;98833.69;5006531;28;20057;-64
2023/10/24 01:00:19;;;;;;;83.05;56.03;;;;;;;20.02;nan;98825.72;5017013;28;20045;-63
2023/10/24 01:02:49;;;;;;;87.90;59.08;;;;;;;20.28;nan;98832.19;5013362;28;20127;-64
2023/10/24 01:05:19;;;;;;;93.55;59.15;;;;;;;20.14;nan;98834.47;5022628;28;20084;-63
2023/10/24 01:07:48;;;;;;;91.22;61.83;;;;;;;20.05;nan;98837.84;5022846;28;20132;-63
2023/10/24 01:10:19;;;;;;;88.75;59.42;;;;;;;19.72;nan;98838.75;5019076;28;20057;-64
2023/10/24 01:12:48;;;;;;;88.07;60.70;;;;;;;19.58;nan;98854.41;5010024;28;20125;-64
2023/10/24 01:15:17;;;;;;;86.53;58.47;;;;;;;19.87;nan;98843.53;5006634;28;20707;-63
2023/10/24 01:17:51;;;;;;;87.53;61.50;;;;;;;19.63;nan;98846.44;5003947;28;20057;-64
2023/10/24 01:20:21;;;;;;;95.18;61.92;;;;;;;19.55;nan;98854.94;5032824;28;20061;-64
2023/10/24 01:22:50;;;;;;;91.07;62.15;;;;;;;19.54;nan;98850.59;5014455;28;20112;-64
2023/10/24 01:25:20;;;;;;;90.80;60.75;;;;;;;19.74;nan;98861.63;4998698;28;20049;-64
2023/10/24 01:27:54;;;;;;;90.72;63.33;;;;;;;19.49;nan;98850.53;5015088;28;20042;-64
2023/10/24 01:30:24;;;;;;;92.80;63.75;;;;;;;19.70;nan;98863.19;5010308;28;20069;-63
2023/10/24 01:32:54;;;;;;;92.72;63.30;;;;;;;20.00;nan;98867.38;5000921;28;20479;-64
2023/10/24 01:35:23;;;;;;;93.95;66.63;;;;;;;19.56;nan;98867.28;5015598;28;20643;-63
2023/10/24 01:37:52;;;;;;;92.78;62.30;;;;;;;19.68;nan;98870.69;5013142;28;20076;-66
2023/10/24 01:40:22;;;;;;;92.65;63.25;;;;;;;19.55;nan;98878.28;5022359;28;20111;-64
2023/10/24 01:42:51;;;;;;;101.50;63.72;;;;;;;19.53;nan;98878.53;5020491;28;20136;-64
2023/10/24 01:45:20;;;;;;;92.28;64.63;;;;;;;19.80;nan;98883.22;5025489;28;20069;-64
2023/10/24 01:47:51;;;;;;;92.03;65.65;;;;;;;19.86;nan;98887.59;5020046;28;20369;-64
2023/10/24 01:50:21;;;;;;;93.75;64.10;;;;;;;19.74;nan;98890.38;5017738;28;20053;-64
2023/10/24 01:52:50;;;;;;;95.75;63.10;;;;;;;20.29;nan;98895.69;5013795;28;20049;-64
2023/10/24 01:55:20;;;;;;;94.63;63.35;;;;;;;20.01;nan;98899.38;5006064;28;20046;-64
2023/10/24 01:57:49;;;;;;;92.07;61.50;;;;;;;20.24;nan;98906.38;5012404;28;20049;-64
2023/10/24 02:00:20;;;;;;;84.13;63.25;;;;;;;20.52;nan;98906.25;5011816;28;20074;-64
2023/10/24 02:02:50;;;;;;;90.47;62.67;;;;;;;20.62;nan;98919.00;5000341;28;20060;-64
2023/10/24 02:05:20;;;;;;;92.15;62.97;;;;;;;20.76;nan;98924.78;5020250;28;20046;-64
2023/10/24 02:07:49;;;;;;;92.63;62.97;;;;;;;20.62;nan;98924.38;5017160;28;20064;-64
2023/10/24 02:10:19;;;;;;;96.22;67.28;;;;;;;20.56;nan;98923.50;5016886;28;20100;-64
2023/10/24 02:12:48;;;;;;;88.70;64.30;;;;;;;20.71;nan;98927.44;5010559;28;20532;-64
2023/10/24 02:15:17;;;;;;;100.47;66.45;;;;;;;20.97;nan;98930.16;5005668;28;20474;-64
2023/10/24 02:17:46;;;;;;;106.53;71.93;;;;;;;21.12;nan;98931.34;5021514;28;20415;-64
2023/10/24 02:20:16;;;;;;;107.75;74.07;;;;;;;21.15;nan;98936.28;5014826;28;20142;-64
2023/10/24 02:22:51;;;;;;;105.97;75.45;;;;;;;21.23;nan;98938.50;5013667;28;20111;-63
2023/10/24 02:25:21;;;;;;;106.22;77.28;;;;;;;21.49;nan;98932.25;5003533;28;20128;-64
2023/10/24 02:27:52;;;;;;;118.30;81.88;;;;;;;21.49;nan;98943.84;5003559;28;20061;-64
2023/10/24 02:30:22;;;;;;;111.07;78.57;;;;;;;21.64;nan;98943.16;5007536;28;20050;-64
2023/10/24 02:32:51;;;;;;;115.13;81.00;;;;;;;21.76;nan;98945.69;5011033;28;20077;-64
2023/10/24 02:35:20;;;;;;;106.90;76.07;;;;;;;21.85;nan;98950.34;5023423;28;20057;-64
2023/10/24 02:37:50;;;;;;;110.90;76.82;;;;;;;22.17;nan;98954.88;5007976;28;20073;-64
2023/10/24 02:40:19;;;;;;;99.00;73.22;;;;;;;22.38;nan;98967.41;4996340;28;20065;-64
2023/10/24 02:42:48;;;;;;;110.90;75.53;;;;;;;22.40;nan;98963.34;4992164;28;20127;-64
2023/10/24 02:45:18;;;;;;;103.63;76.03;;;;;;;22.29;nan;98964.41;5005000;28;20073;-64
2023/10/24 02:47:47;;;;;;;102.95;75.50;;;;;;;22.65;nan;98968.06;5004868;28;20046;-64
2023/10/24 02:50:17;;;;;;;110.57;78.90;;;;;;;22.78;nan;98975.72;5014535;28;20148;-64
2023/10/24 02:52:47;;;;;;;119.38;81.95;;;;;;;22.40;nan;98974.16;5013094;28;20377;-64
2023/10/24 02:55:16;;;;;;;113.30;80.57;;;;;;;22.65;nan;98975.34;5005055;28;20050;-64
2023/10/24 02:57:46;;;;;;;114.95;83.63;;;;;;;22.80;nan;98984.34;5005207;28;20187;-64
2023/10/24 03:00:16;;;;;;;120.22;81.95;;;;;;;23.04;nan;98982.00;5014962;28;20077;-64
2023/10/24 03:02:46;;;;;;;124.97;81.55;;;;;;;23.10;nan;98994.44;5019317;28;20511;-64
2023/10/24 03:05:16;;;;;;;109.68;80.50;;;;;;;23.15;nan;98994.44;5006564;28;20049;-64
2023/10/24 03:07:45;;;;;;;115.20;82.72;;;;;;;23.56;nan;98999.94;4982232;28;21215;-64
2023/10/24 03:10:14;;;;;;;116.85;82.65;;;;;;;23.77;nan;99006.16;4991029;28;20056;-65
2023/10/24 03:12:44;;;;;;;114.18;81.07;;;;;;;23.91;nan;99010.78;5000446;28;20056;-64
2023/10/24 03:15:13;;;;;;;114.60;79.28;;;;;;;24.07;nan;99006.16;4999467;28;20046;-64
2023/10/24 03:17:42;;;;;;;103.10;74.60;;;;;;;23.82;nan;99006.97;4999642;28;20104;-64
2023/10/24 03:20:12;;;;;;;102.30;72.65;;;;;;;23.65;nan;99007.25;5002281;28;20042;-65
2023/10/24 03:22:42;;;;;;;104.15;73.63;;;;;;;23.90;nan;99011.84;5009191;28;20052;-65
2023/10/24 03:25:11;;;;;;;91.95;69.90;;;;;;;24.27;nan;99018.88;4986480;28;20046;-64
2023/10/24 03:27:41;;;;;;;92.70;66.35;;;;;;;24.39;nan;99022.09;5004905;28;20074;-64
2023/10/24 03:30:11;;;;;;;98.55;66.47;;;;;;;24.07;nan;99027.81;5013656;28;20366;-64
2023/10/24 03:32:40;;;;;;;90.28;62.85;;;;;;;24.24;nan;99025.66;5011319;28;20545;-64
2023/10/24 03:35:10;;;;;;;92.88;65.80;;;;;;;24.40;nan;99023.72;5020477;28;20072;-64
2023/10/24 03:37:39;;;;;;;88.28;65.13;;;;;;;24.47;nan;99026.97;5013747;28;20083;-64
2023/10/24 03:40:09;;;;;;;90.18;62.78;;;;;;;24.52;nan;99030.47;5007251;28;20437;-65
2023/10/24 03:42:39;;;;;;;83.25;58.08;;;;;;;24.66;nan;99038.81;5001505;28;20046;-64
2023/10/24 03:45:08;;;;;;;83.43;62.28;;;;;;;24.85;nan;99029.00;4986919;28;20065;-65
2023/10/24 03:47:37;;;;;;;86.40;61.58;;;;;;;25.04;nan;99035.47;4998298;28;20112;-65
2023/10/24 03:50:07;;;;;;;80.68;60.95;;;;;;;24.89;nan;99030.09;5003771;28;20038;-65
2023/10/24 03:52:37;;;;;;;97.00;65.50;;;;;;;24.91;nan;99027.13;5002803;28;20145;-65
2023/10/24 03:55:06;;;;;;;83.28;62.13;;;;;;;25.30;nan;99038.84;5000515;28;20820;-64
2023/10/24 03:57:38;;;;;;;85.53;61.03;;;;;;;25.69;nan;99041.59;4990016;28;20465;-64
2023/10/24 04:00:09;;;;;;;75.30;51.43;;;;;;;25.73;nan;99042.66;4978953;28;20159;-65
2023/10/24 04:02:40;;;;;;;62.50;46.95;;;;;;;26.06;nan;99037.50;5009399;28;20658;-65
2023/10/24 04:05:10;;;;;;;50.92;39.47;;;;;;;26.27;nan;99047.94;5010284;28;20052;-64
2023/10/24 04:07:39;;;;;;;56.45;40.58;;;;;;;26.40;nan;99045.63;4988389;28;20051;-65
2023/10/24 04:10:09;;;;;;;56.25;38.53;;;;;;;26.64;nan;99041.03;5001511;28;20116;-64
2023/10/24 04:12:38;;;;;;;57.70;39.47;;;;;;;26.68;nan;99037.47;5012529;28;20049;-64
2023/10/24 04:15:09;;;;;;;53.08;40.22;;;;;;;26.99;nan;99039.84;5007396;28;20453;-65
2023/10/24 04:17:38;;;;;;;59.25;41.30;;;;;;;27.06;nan;99034.84;5008264;28;20545;-67
2023/10/24 04:20:08;;;;;;;60.15;42.58;;;;;;;27.22;nan;99038.97;4994573;28;20046;-63
2023/10/24 04:22:37;;;;;;;52.50;39.10;;;;;;;27.44;nan;99031.03;5014500;28;20054;-64
2023/10/24 04:25:06;;;;;;;68.97;40.10;;;;;;;27.49;nan;99036.44;5007118;28;20104;-64
2023/10/24 04:27:36;;;;;;;46.88;35.75;;;;;;;27.82;nan;99041.94;5007362;28;20057;-65
2023/10/24 04:30:07;;;;;;;49.90;34.22;;;;;;;28.12;nan;99033.28;5010529;28;20139;-65
2023/10/24 04:32:36;;;;;;;46.33;32.17;;;;;;;27.77;nan;99042.00;5015145;28;20057;-65
2023/10/24 04:35:06;;;;;;;43.15;30.40;;;;;;;28.44;nan;99038.69;5022134;28;20060;-65
2023/10/24 04:37:35;;;;;;;40.33;29.20;;;;;;;28.74;nan;99045.50;4990587;28;20060;-64
2023/10/24 04:40:07;;;;;;;46.50;29.95;;;;;;;28.62;nan;99041.63;5006988;28;20068;-65
2023/10/24 04:42:37;;;;;;;40.58;28.40;;;;;;;28.93;nan;99043.50;5011407;28;20052;-64
2023/10/24 04:45:10;;;;;;;33.15;21.90;;;;;;;29.35;nan;99044.25;5005995;28;20072;-63
2023/10/24 04:47:39;;;;;;;30.15;19.77;;;;;;;29.57;nan;99043.47;5007782;28;20042;-63
2023/10/24 04:50:09;;;;;;;36.20;20.50;;;;;;;29.69;nan;99046.50;5006619;28;20141;-64
2023/10/24 04:52:38;;;;;;;33.97;23.98;;;;;;;29.68;nan;99050.31;5006281;28;20042;-64
2023/10/24 04:55:11;;;;;;;33.45;24.35;;;;;;;29.89;nan;99059.66;5001161;28;20160;-64
2023/10/24 04:57:42;;;;;;;37.03;25.70;;;;;;;30.23;nan;99050.88;4987099;28;20045;-65
2023/10/24 05:00:12;;;;;;;36.65;26.73;;;;;;;30.06;nan;99051.59;5004114;28;20053;-65
2023/10/24 05:02:43;;;;;;;42.53;28.65;;;;;;;30.36;nan;99051.94;5007992;28;20409;-63
2023/10/24 05:05:13;;;;;;;37.13;27.97;;;;;;;30.25;nan;99056.84;5005369;28;20082;-63
2023/10/24 05:07:42;;;;;;;48.17;30.90;;;;;;;29.78;nan;99050.91;5005798;28;20049;-64
2023/10/24 05:10:12;;;;;;;41.67;28.90;;;;;;;29.73;nan;99050.22;5006193;28;20143;-63
2023/10/24 05:12:44;;;;;;;32.80;25.38;;;;;;;29.61;nan;99045.28;4999009;28;20046;-63
2023/10/24 05:15:17;;;;;;;30.13;21.52;;;;;;;30.55;nan;99050.63;5003949;28;20064;-64
2023/10/24 05:17:46;;;;;;;29.73;20.30;;;;;;;29.73;nan;99053.75;5004899;28;20466;-64
2023/10/24 05:20:17;;;;;;;21.23;17.88;;;;;;;29.84;nan;99051.56;5009939;28;20060;-64
2023/10/24 05:22:46;;;;;;;25.67;16.90;;;;;;;30.69;nan;99059.53;5009773;28;20037;-63
2023/10/24 05:25:16;;;;;;;25.13;17.98;;;;;;;30.69;nan;99055.97;5005772;28;20049;-63
2023/10/24 05:27:45;;;;;;;28.27;18.00;;;;;;;30.58;nan;99054.66;5011533;28;20053;-64
2023/10/24 05:30:15;;;;;;;26.58;17.25;;;;;;;30.08;nan;99043.09;5010538;28;20057;-64
2023/10/24 05:32:44;;;;;;;25.10;18.30;;;;;;;29.48;nan;99048.06;5010563;28;20061;-63
2023/10/24 05:35:14;;;;;;;22.50;17.40;;;;;;;30.07;nan;99047.75;5011290;28;20053;-65
2023/10/24 05:37:43;;;;;;;24.50;18.05;;;;;;;29.88;nan;99047.94;4991785;28;20132;-64
2023/10/24 05:40:12;;;;;;;30.92;21.40;;;;;;;30.29;nan;99041.44;5006417;28;20054;-64
2023/10/24 05:42:42;;;;;;;31.52;21.60;;;;;;;30.06;nan;99035.19;5008246;28;20061;-65
2023/10/24 05:45:11;;;;;;;29.63;23.42;;;;;;;30.39;nan;99029.44;4999381;28;20548;-63
2023/10/24 05:47:41;;;;;;;34.35;24.63;;;;;;;31.01;nan;99030.22;5003369;28;20124;-64
2023/10/24 05:50:11;;;;;;;32.30;23.90;;;;;;;30.97;nan;99024.53;5008502;28;20053;-67
2023/10/24 05:52:49;;;;;;;33.63;23.85;;;;;;;30.25;nan;99033.06;5014955;28;20174;-65
2023/10/24 05:55:19;;;;;;;32.17;24.73;;;;;;;29.91;nan;99034.78;5010060;28;20127;-65
2023/10/24 05:57:48;;;;;;;38.08;25.10;;;;;;;29.73;nan;99020.19;5003852;28;20521;-66
2023/10/24 06:00:29;;;;;;;28.73;21.85;;;;;;;30.03;nan;99024.09;5002786;28;20057;-64
2023/10/24 06:02:59;;;;;;;24.30;18.92;;;;;;;29.74;nan;99019.06;5008084;28;20045;-65
2023/10/24 06:05:28;;;;;;;21.25;16.80;;;;;;;29.90;nan;99025.78;5003670;28;20548;-63
2023/10/24 06:07:58;;;;;;;21.17;16.58;;;;;;;29.37;nan;99020.19;5004368;28;20050;-64
2023/10/24 06:10:28;;;;;;;21.67;15.85;;;;;;;29.52;nan;99019.06;4983532;28;20057;-63
2023/10/24 06:12:57;;;;;;;22.73;14.82;;;;;;;29.55;nan;99015.69;5007039;28;20041;-65
2023/10/24 06:15:26;;;;;;;20.77;13.68;;;;;;;29.72;nan;99011.16;5002330;28;20505;-63
2023/10/24 06:17:56;;;;;;;28.52;15.27;;;;;;;29.41;nan;99011.09;4997498;28;20140;-62
2023/10/24 06:20:28;;;;;;;22.52;12.95;;;;;;;29.64;nan;99003.72;5004785;28;20049;-63
2023/10/24 06:23:03;;;;;;;19.45;12.65;;;;;;;29.25;nan;98996.16;4992692;28;20049;-64
2023/10/24 06:25:41;;;;;;;17.60;13.00;;;;;;;29.26;nan;98994.22;5012231;28;20103;-64
2023/10/24 06:28:14;;;;;;;17.55;12.45;;;;;;;28.70;nan;99000.03;4985438;28;20133;-67
2023/10/24 06:30:43;;;;;;;20.95;12.90;;;;;;;28.95;nan;98991.34;4988288;28;20042;-67
2023/10/24 06:33:15;;;;;;;25.05;16.10;;;;;;;29.06;nan;98986.50;4985143;28;20058;-67
2023/10/24 06:35:47;;;;;;;27.13;18.40;;;;;;;29.26;nan;98996.94;4986640;28;20789;-70
2023/10/24 06:38:17;;;;;;;30.37;20.03;;;;;;;29.02;nan;98981.66;4982098;28;20062;-66
2023/10/24 06:40:46;;;;;;;27.55;17.92;;;;;;;28.97;nan;98984.50;4984513;28;20782;-67
2023/10/24 06:43:17;;;;;;;33.85;18.55;;;;;;;29.13;nan;98981.41;4983929;28;20053;-66
2023/10/24 06:45:47;;;;;;;36.03;20.80;;;;;;;29.27;nan;98977.53;4984539;28;20049;-68
2023/10/24 06:48:16;;;;;;;31.92;21.20;;;;;;;29.12;nan;98972.41;4984870;28;20057;-66
2023/10/24 06:50:46;;;;;;;26.80;19.63;;;;;;;29.26;nan;98964.19;4983128;28;20050;-65
2023/10/24 06:53:16;;;;;;;27.42;19.75;;;;;;;29.14;nan;98967.47;4986188;28;20205;-66
2023/10/24 06:55:47;;;;;;;25.67;20.65;;;;;;;29.25;nan;98963.41;4997503;28;20628;-65
2023/10/24 06:58:17;;;;;;;26.63;17.60;;;;;;;29.05;nan;98961.13;4984654;28;20050;-66
2023/10/24 07:00:46;;;;;;;23.40;15.90;;;;;;;29.39;nan;98958.72;4995036;28;20196;-65
2023/10/24 07:03:15;;;;;;;25.65;17.15;;;;;;;29.17;nan;98955.94;5015034;28;20050;-66
2023/10/24 07:05:52;;;;;;;23.23;18.58;;;;;;;29.22;nan;98953.09;4966664;28;20055;-66
2023/10/24 07:08:21;;;;;;;26.75;18.23;;;;;;;29.18;nan;98954.84;4983405;28;26660;-68
2023/10/24 07:10:51;;;;;;;25.95;17.70;;;;;;;29.26;nan;98947.81;4987576;28;20070;-67
2023/10/24 07:13:20;;;;;;;27.77;16.33;;;;;;;28.88;nan;98936.44;4984990;28;20061;-66
2023/10/24 07:15:50;;;;;;;28.23;16.13;;;;;;;29.03;nan;98934.16;4987735;28;20057;-66
2023/10/24 07:18:19;;;;;;;26.30;17.52;;;;;;;29.17;nan;98928.66;4978606;28;20058;-66
2023/10/24 07:20:48;;;;;;;27.33;15.75;;;;;;;29.00;nan;98931.25;4982029;28;20374;-66
2023/10/24 07:23:19;;;;;;;22.80;15.18;;;;;;;29.07;nan;98928.91;5003949;28;20053;-66
2023/10/24 07:25:56;;;;;;;28.73;15.88;;;;;;;29.11;nan;98924.44;4986449;28;20141;-67
2023/10/24 07:28:26;;;;;;;23.65;16.85;;;;;;;29.14;nan;98914.84;5000864;28;20057;-66
2023/10/24 07:30:58;;;;;;;22.58;16.65;;;;;;;29.03;nan;98917.00;5006151;28;20718;-67
2023/10/24 07:33:27;;;;;;;31.02;20.40;;;;;;;28.86;nan;98914.91;5004231;28;20042;-67
2023/10/24 07:36:04;;;;;;;31.58;19.48;;;;;;;28.80;nan;98918.06;5004612;28;20053;-66
2023/10/24 07:38:36;;;;;;;31.02;20.77;;;;;;;28.86;nan;98914.09;5012402;28;20053;-66
2023/10/24 07:41:06;;;;;;;27.90;21.35;;;;;;;28.82;nan;98915.81;5014994;28;20072;-67
2023/10/24 07:43:35;;;;;;;29.33;20.77;;;;;;;28.79;nan;98919.19;5008376;28;20048;-67
2023/10/24 07:46:07;;;;;;;33.05;21.58;;;;;;;28.48;nan;98906.19;5006852;28;20682;-67
2023/10/24 07:48:40;;;;;;;36.83;20.07;;;;;;;28.64;nan;98908.56;5003640;28;20046;-67
2023/10/24 07:51:11;;;;;;;39.22;21.65;;;;;;;28.63;nan;98898.78;5007127;28;20046;-67
2023/10/24 07:53:40;;;;;;;34.53;21.15;;;;;;;28.68;nan;98899.47;5009193;28;20144;-66
2023/10/24 07:56:09;;;;;;;29.13;20.15;;;;;;;28.63;nan;98898.78;5007240;28;20073;-66
2023/10/24 07:58:38;;;;;;;27.48;18.85;;;;;;;28.70;nan;98901.91;5003833;28;20050;-65
2023/10/24 08:01:08;;;;;;;31.02;18.70;;;;;;;28.63;nan;98891.41;5013035;28;20045;-65
2023/10/24 08:03:37;;;;;;;29.45;18.52;;;;;;;28.67;nan;98892.41;5011344;28;20050;-66
2023/10/24 08:06:06;;;;;;;31.85;17.30;;;;;;;28.76;nan;98887.09;5018843;28;20053;-66
2023/10/24 08:08:36;;;;;;;32.25;19.17;;;;;;;28.65;nan;98875.56;5012573;28;20128;-66
2023/10/24 08:11:06;;;;;;;30.27;18.88;;;;;;;28.74;nan;98879.19;5008678;28;20058;-65
2023/10/24 08:13:35;;;;;;;29.52;17.85;;;;;;;28.67;nan;98878.78;5005207;28;20089;-66
2023/10/24 08:16:06;;;;;;;26.42;18.23;;;;;;;28.65;nan;98877.47;5002813;28;20064;-66
2023/10/24 08:18:36;;;;;;;26.90;18.02;;;;;;;28.59;nan;98874.03;5003445;28;20823;-66
2023/10/24 08:21:09;;;;;;;24.20;18.00;;;;;;;28.60;nan;98875.66;5003886;28;20421;-66
2023/10/24 08:23:39;;;;;;;29.33;17.58;;;;;;;28.70;nan;98870.03;5009648;28;20100;-66
2023/10/24 08:26:08;;;;;;;37.40;18.85;;;;;;;28.77;nan;98859.50;5015478;28;20050;-66
2023/10/24 08:28:37;;;;;;;27.00;16.42;;;;;;;28.71;nan;98868.91;5006618;28;20069;-66
2023/10/24 08:31:06;;;;;;;20.83;14.15;;;;;;;28.80;nan;98866.25;5017201;28;20054;-66
2023/10/24 08:33:36;;;;;;;22.98;14.75;;;;;;;28.75;nan;98872.63;5017884;28;20068;-66
2023/10/24 08:36:05;;;;;;;23.17;16.60;;;;;;;28.53;nan;98867.91;5004050;28;20651;-66
2023/10/24 08:38:43;;;;;;;23.90;16.25;;;;;;;28.62;nan;98859.00;5004568;28;20049;-66
2023/10/24 08:41:13;;;;;;;27.23;18.55;;;;;;;28.51;nan;98853.78;5005132;28;20050;-65
2023/10/24 08:43:44;;;;;;;23.58;16.10;;;;;;;28.56;nan;98856.38;5019557;28;20045;-66
2023/10/24 08:46:14;;;;;;;22.77;14.77;;;;;;;28.47;nan;98860.13;5005020;28;20056;-66
2023/10/24 08:48:44;;;;;;;24.25;15.73;;;;;;;28.41;nan;98853.22;5000104;28;20800;-66
2023/10/24 08:51:18;;;;;;;20.13;12.35;;;;;;;28.49;nan;98860.66;5002396;28;20068;-65
2023/10/24 08:53:47;;;;;;;17.45;11.00;;;;;;;28.49;nan;98856.00;5018028;28;20123;-66
2023/10/24 08:56:17;;;;;;;17.30;10.88;;;;;;;28.52;nan;98854.59;5005103;28;20045;-67
2023/10/24 08:58:47;;;;;;;19.85;11.23;;;;;;;28.45;nan;98852.28;5004795;28;20144;-66
2023/10/24 09:01:19;;;;;;;14.13;10.77;;;;;;;28.44;nan;98847.94;4979653;28;20590;-67
2023/10/24 09:03:51;;;;;;;18.30;13.45;;;;;;;28.46;nan;98847.63;4999768;28;20103;-67
2023/10/24 09:06:22;;;;;;;26.05;14.93;;;;;;;28.43;nan;98849.06;5002206;28;20431;-68
2023/10/24 09:08:51;;;;;;;20.55;14.10;;;;;;;28.35;nan;98844.31;5003805;28;20096;-66
2023/10/24 09:11:23;;;;;;;22.08;13.82;;;;;;;28.32;nan;98847.66;5007546;28;20061;-66
2023/10/24 09:13:54;;;;;;;22.02;14.77;;;;;;;28.40;nan;98843.41;5012767;28;20049;-66
2023/10/24 09:16:26;;;;;;;27.05;14.70;;;;;;;28.38;nan;98842.91;5004654;28;20137;-66
2023/10/24 09:18:56;;;;;;;28.25;15.85;;;;;;;28.27;nan;98844.25;5013473;28;20133;-65
2023/10/24 09:21:26;;;;;;;25.65;15.48;;;;;;;28.37;nan;98857.66;5007519;28;20042;-65
2023/10/24 09:23:55;;;;;;;18.15;12.68;;;;;;;28.27;nan;98838.78;5014363;28;20413;-66
2023/10/24 09:26:24;;;;;;;18.80;12.38;;;;;;;28.43;nan;98854.50;5003647;28;20140;-67
2023/10/24 09:28:57;;;;;;;14.68;9.98;;;;;;;28.37;nan;98847.53;4994259;28;20140;-66
2023/10/24 09:31:26;;;;;;;14.88;9.15;;;;;;;28.33;nan;98843.00;5009488;28;20058;-66
2023/10/24 09:33:59;;;;;;;12.68;9.35;;;;;;;28.40;nan;98849.66;5000880;28;20124;-66
2023/10/24 09:36:28;;;;;;;17.25;10.20;;;;;;;28.37;nan;98844.03;4999037;28;20045;-66
2023/10/24 09:38:58;;;;;;;18.20;11.65;;;;;;;28.35;nan;98844.31;5004187;28;20177;-66
2023/10/24 09:41:28;;;;;;;21.60;11.75;;;;;;;28.26;nan;98842.63;5005574;28;20046;-66
2023/10/24 09:44:02;;;;;;;20.33;10.90;;;;;;;28.29;nan;98842.81;5001269;28;20050;-66
2023/10/24 09:46:32;;;;;;;;;;;;;;;28.28;nan;98845.84;5003472;28;20069;-66
2023/10/24 09:49:03;;;;;;;15.38;8.77;;;;;;;28.12;nan;98839.91;5035429;28;19924;-67
2023/10/24 09:51:37;;;;;;;13.35;9.05;;;;;;;28.17;nan;98847.97;5008460;28;20628;-66
2023/10/24 09:54:07;;;;;;;11.80;7.63;;;;;;;28.17;nan;98844.44;4998966;28;20462;-67
2023/10/24 09:56:37;;;;;;;11.70;7.60;;;;;;;28.20;nan;98847.34;5003253;28;20046;-66
2023/10/24 09:59:07;;;;;;;14.35;7.82;;;;;;;28.18;nan;98846.06;5008572;28;20076;-68
2023/10/24 10:01:38;;;;;;;13.82;7.45;;;;;;;28.17;nan;98842.53;5004182;28;20050;-67
2023/10/24 10:04:15;;;;;;;13.77;7.82;;;;;;;28.16;nan;98845.53;5009119;28;20129;-67
2023/10/24 10:06:45;;;;;;;13.15;7.28;;;;;;;28.10;nan;98837.47;5004449;28;20042;-66
2023/10/24 10:09:25;;;;;;;11.75;7.50;;;;;;;28.07;nan;98835.34;5002351;28;20054;-66
2023/10/24 10:11:57;;;;;;;14.10;7.50;;;;;;;28.05;nan;98834.03;5011432;28;20057;-66
2023/10/24 10:14:48;;;;;;;12.70;8.35;;;;;;;28.00;nan;98831.41;5002213;28;20046;-66
2023/10/24 10:17:48;;;;;;;15.32;9.30;;;;;;;27.85;nan;98827.06;5011818;28;20078;-67
2023/10/24 10:20:30;;;;;;;22.30;8.60;;;;;;;27.91;nan;98825.06;4999737;28;20645;-66
2023/10/24 10:23:30;;;;;;;14.70;8.80;;;;;;;27.96;nan;98822.22;5008039;28;20037;-66
2023/10/24 10:26:33;;;;;;;13.05;8.23;;;;;;;27.93;nan;98817.38;4992528;28;20125;-65
2023/10/24 10:29:43;;;;;;;21.90;8.98;;;;;;;27.79;nan;98813.88;5005799;28;20128;-66
2023/10/24 10:32:49;;;;;;;16.63;8.88;;;;;;;27.73;nan;98813.16;5003446;28;20109;-66
2023/10/24 10:35:52;;;;;;;16.75;9.07;;;;;;;27.69;nan;98826.56;5001585;28;20152;-66
2023/10/24 10:38:49;;;;;;;12.00;6.97;;;;;;;27.69;nan;98812.16;4999125;28;20042;-66
2023/10/24 10:41:21;;;;;;;13.93;6.82;;;;;;;27.73;nan;98817.78;5002438;28;20141;-66
2023/10/24 10:43:59;;;;;;;15.63;8.05;;;;;;;27.62;nan;98814.44;5004057;28;20057;-66
2023/10/24 10:46:31;;;;;;;12.85;7.85;;;;;;;27.49;nan;98813.31;4995918;28;20061;-66
2023/10/24 10:49:06;;;;;;;10.55;7.13;;;;;;;27.49;nan;98807.88;5004236;28;20054;-66
2023/10/24 10:51:37;;;;;;;12.40;8.20;;;;;;;27.44;nan;98801.72;4999387;28;20054;-66
2023/10/24 10:54:20;;;;;;;;;;;;;;;27.37;nan;98798.56;5011898;28;20391;-66
2023/10/24 10:56:56;;;;;;;11.30;7.40;;;;;;;27.41;nan;98805.81;5004701;28;20470;-66
2023/10/24 10:59:51;;;;;;;22.73;7.57;;;;;;;27.35;nan;98804.28;5002221;28;20053;-67
2023/10/24 11:02:39;;;;;;;15.77;8.38;;;;;;;27.28;nan;98801.16;4998473;28;20049;-66
2023/10/24 11:05:43;;;;;;;10.85;8.13;;;;;;;27.36;nan;98794.22;5006294;28;20058;-67
2023/10/24 11:08:18;;;;;;;11.93;8.38;;;;;;;27.17;nan;98797.03;5000021;28;20042;-67
2023/10/24 11:10:52;;;;;;;13.43;8.60;;;;;;;27.24;nan;98789.28;5005704;28;20530;-67
2023/10/24 11:13:41;;;;;;;11.45;8.18;;;;;;;27.14;nan;98797.59;4993423;28;20355;-66
2023/10/24 11:16:12;;;;;;;16.80;8.05;;;;;;;27.06;nan;98803.72;5010832;28;20053;-65
2023/10/24 11:18:46;;;;;;;15.10;8.38;;;;;;;27.08;nan;98798.81;5005854;28;20085;-67
2023/10/24 11:21:16;;;;;;;13.45;8.27;;;;;;;27.04;nan;98795.06;5008020;28;20564;-66
2023/10/24 11:23:46;;;;;;;11.43;7.80;;;;;;;27.03;nan;98798.88;5007153;28;20061;-66
2023/10/24 11:26:17;;;;;;;14.20;8.85;;;;;;;26.99;nan;98803.31;4991571;28;20050;-66
2023/10/24 11:28:47;;;;;;;14.32;8.63;;;;;;;26.95;nan;98799.56;5006726;28;21336;-66
2023/10/24 11:31:22;;;;;;;14.23;8.20;;;;;;;26.94;nan;98797.94;5004025;28;20050;-67
2023/10/24 11:33:51;;;;;;;11.50;8.25;;;;;;;26.86;nan;98798.63;5003560;28;20049;-66
2023/10/24 11:36:24;;;;;;;13.40;8.50;;;;;;;26.80;nan;98797.84;5006610;28;20049;-66
2023/10/24 11:38:54;;;;;;;14.82;8.65;;;;;;;26.68;nan;98800.22;5003874;28;20056;-64
2023/10/24 11:41:23;;;;;;;18.15;8.27;;;;;;;26.68;nan;98798.31;5007954;28;20061;-64
2023/10/24 11:43:54;;;;;;;18.38;10.45;;;;;;;26.54;nan;98802.88;4992761;28;20129;-64
2023/10/24 11:46:24;;;;;;;16.30;8.40;;;;;;;26.50;nan;98792.88;5005899;28;20115;-64
2023/10/24 11:48:54;;;;;;;15.80;8.02;;;;;;;26.52;nan;98794.19;5008059;28;20053;-64
2023/10/24 11:51:25;;;;;;;15.90;8.48;;;;;;;26.46;nan;98794.56;5008056;28;20062;-64
2023/10/24 11:54:05;;;;;;;12.80;7.72;;;;;;;26.44;nan;98789.44;5005069;28;20164;-64